sensor_id;sensor_type;location;lat;lon;timestamp;P1;durP1;ratioP1;P2;durP2;ratioP2
25111;SDS011;13092;51.996;4.458;2023-03-01T00:01:42;41.13;;;37.33;;
25111;SDS011;13092;51.996;4.458;2023-03-01T00:04:11;40.87;;;37.27;;
25111;SDS011;13092;51.996;4.458;2023-03-01T00:06:39;41.27;;;37.47;;
25111;SDS011;13092;51.996;4.458;2023-03-01T00:09:12;41.17;;;37.37;;
25111;SDS011;13092;51.996;4.458;2023-03-01T00:11:41;40.53;;;37.03;;
25111;SDS011;13092;51.996;4.458;2023-03-01T00:14:11;40.70;;;36.97;;
25111;SDS011;13092;51.996;4.458;2023-03-01T00:16:42;40.50;;;36.93;;
25111;SDS011;13092;51.996;4.458;2023-03-01T00:19:13;40.57;;;37.10;;
25111;SDS011;13092;51.996;4.458;2023-03-01T00:21:42;41.47;;;37.47;;
25111;SDS011;13092;51.996;4.458;2023-03-01T00:24:12;39.97;;;36.37;;
25111;SDS011;13092;51.996;4.458;2023-03-01T00:26:40;41.40;;;37.60;;
25111;SDS011;13092;51.996;4.458;2023-03-01T00:29:09;41.73;;;37.80;;
25111;SDS011;13092;51.996;4.458;2023-03-01T00:31:37;42.93;;;38.67;;
25111;SDS011;13092;51.996;4.458;2023-03-01T00:34:07;42.67;;;38.50;;
25111;SDS011;13092;51.996;4.458;2023-03-01T00:36:36;41.10;;;37.50;;
25111;SDS011;13092;51.996;4.458;2023-03-01T00:39:05;42.27;;;38.37;;
25111;SDS011;13092;51.996;4.458;2023-03-01T00:41:38;42.93;;;38.77;;
25111;SDS011;13092;51.996;4.458;2023-03-01T00:44:06;42.60;;;38.70;;
25111;SDS011;13092;51.996;4.458;2023-03-01T00:46:35;43.07;;;39.17;;
25111;SDS011;13092;51.996;4.458;2023-03-01T00:49:03;42.57;;;38.67;;
25111;SDS011;13092;51.996;4.458;2023-03-01T00:51:33;42.00;;;38.20;;
25111;SDS011;13092;51.996;4.458;2023-03-01T00:54:01;41.93;;;37.93;;
25111;SDS011;13092;51.996;4.458;2023-03-01T00:56:30;41.57;;;37.73;;
25111;SDS011;13092;51.996;4.458;2023-03-01T00:58:59;42.23;;;38.30;;
25111;SDS011;13092;51.996;4.458;2023-03-01T01:01:29;42.77;;;38.67;;
25111;SDS011;13092;51.996;4.458;2023-03-01T01:03:59;42.53;;;38.63;;
25111;SDS011;13092;51.996;4.458;2023-03-01T01:06:29;42.00;;;38.20;;
25111;SDS011;13092;51.996;4.458;2023-03-01T01:09:00;43.20;;;39.10;;
25111;SDS011;13092;51.996;4.458;2023-03-01T01:11:30;42.03;;;38.03;;
25111;SDS011;13092;51.996;4.458;2023-03-01T01:13:59;42.20;;;38.27;;
25111;SDS011;13092;51.996;4.458;2023-03-01T01:16:27;43.07;;;38.87;;
25111;SDS011;13092;51.996;4.458;2023-03-01T01:18:57;42.60;;;38.57;;
25111;SDS011;13092;51.996;4.458;2023-03-01T01:21:25;44.37;;;40.17;;
25111;SDS011;13092;51.996;4.458;2023-03-01T01:23:54;44.37;;;40.17;;
25111;SDS011;13092;51.996;4.458;2023-03-01T01:26:25;44.57;;;40.43;;
25111;SDS011;13092;51.996;4.458;2023-03-01T01:28:55;43.13;;;39.00;;
25111;SDS011;13092;51.996;4.458;2023-03-01T01:31:24;43.60;;;39.47;;
25111;SDS011;13092;51.996;4.458;2023-03-01T01:33:54;44.33;;;39.90;;
25111;SDS011;13092;51.996;4.458;2023-03-01T01:36:23;43.97;;;39.73;;
25111;SDS011;13092;51.996;4.458;2023-03-01T01:38:51;44.50;;;40.40;;
25111;SDS011;13092;51.996;4.458;2023-03-01T01:41:20;44.87;;;40.57;;
25111;SDS011;13092;51.996;4.458;2023-03-01T01:46:41;44.60;;;40.40;;
25111;SDS011;13092;51.996;4.458;2023-03-01T01:49:16;45.00;;;40.50;;
25111;SDS011;13092;51.996;4.458;2023-03-01T01:51:51;45.73;;;41.23;;
25111;SDS011;13092;51.996;4.458;2023-03-01T01:54:27;45.13;;;40.83;;
25111;SDS011;13092;51.996;4.458;2023-03-01T01:57:03;44.70;;;40.30;;
25111;SDS011;13092;51.996;4.458;2023-03-01T01:59:37;46.23;;;41.87;;
25111;SDS011;13092;51.996;4.458;2023-03-01T02:02:08;45.90;;;41.13;;
25111;SDS011;13092;51.996;4.458;2023-03-01T02:04:37;45.67;;;41.07;;
25111;SDS011;13092;51.996;4.458;2023-03-01T02:07:07;45.50;;;41.00;;
25111;SDS011;13092;51.996;4.458;2023-03-01T02:09:41;46.37;;;41.47;;
25111;SDS011;13092;51.996;4.458;2023-03-01T02:12:13;46.43;;;41.47;;
25111;SDS011;13092;51.996;4.458;2023-03-01T02:14:48;45.73;;;41.03;;
25111;SDS011;13092;51.996;4.458;2023-03-01T02:17:16;44.73;;;40.30;;
25111;SDS011;13092;51.996;4.458;2023-03-01T02:19:49;45.73;;;40.97;;
25111;SDS011;13092;51.996;4.458;2023-03-01T02:22:27;45.37;;;40.77;;
25111;SDS011;13092;51.996;4.458;2023-03-01T02:25:01;46.13;;;41.27;;
25111;SDS011;13092;51.996;4.458;2023-03-01T02:27:40;46.13;;;41.47;;
25111;SDS011;13092;51.996;4.458;2023-03-01T02:30:18;45.53;;;40.63;;
25111;SDS011;13092;51.996;4.458;2023-03-01T02:32:48;45.43;;;40.73;;
25111;SDS011;13092;51.996;4.458;2023-03-01T02:35:18;44.67;;;40.07;;
25111;SDS011;13092;51.996;4.458;2023-03-01T02:37:47;44.63;;;40.07;;
25111;SDS011;13092;51.996;4.458;2023-03-01T02:40:17;46.10;;;41.37;;
25111;SDS011;13092;51.996;4.458;2023-03-01T02:42:49;45.40;;;40.60;;
25111;SDS011;13092;51.996;4.458;2023-03-01T02:45:21;45.33;;;40.50;;
25111;SDS011;13092;51.996;4.458;2023-03-01T02:47:49;47.40;;;42.27;;
25111;SDS011;13092;51.996;4.458;2023-03-01T02:50:28;46.30;;;41.43;;
25111;SDS011;13092;51.996;4.458;2023-03-01T02:53:15;44.67;;;39.07;;
25111;SDS011;13092;51.996;4.458;2023-03-01T02:55:50;45.67;;;40.83;;
25111;SDS011;13092;51.996;4.458;2023-03-01T02:58:19;46.03;;;41.33;;
25111;SDS011;13092;51.996;4.458;2023-03-01T03:00:48;46.50;;;41.57;;
25111;SDS011;13092;51.996;4.458;2023-03-01T03:03:17;45.60;;;40.20;;
25111;SDS011;13092;51.996;4.458;2023-03-01T03:05:47;45.97;;;41.20;;
25111;SDS011;13092;51.996;4.458;2023-03-01T03:08:16;47.33;;;42.53;;
25111;SDS011;13092;51.996;4.458;2023-03-01T03:10:50;46.00;;;41.30;;
25111;SDS011;13092;51.996;4.458;2023-03-01T03:13:19;46.50;;;41.63;;
25111;SDS011;13092;51.996;4.458;2023-03-01T03:15:49;46.20;;;41.23;;
25111;SDS011;13092;51.996;4.458;2023-03-01T03:18:18;45.63;;;40.20;;
25111;SDS011;13092;51.996;4.458;2023-03-01T03:20:47;46.43;;;41.40;;
25111;SDS011;13092;51.996;4.458;2023-03-01T03:23:19;46.10;;;41.30;;
25111;SDS011;13092;51.996;4.458;2023-03-01T03:25:48;45.87;;;41.07;;
25111;SDS011;13092;51.996;4.458;2023-03-01T03:28:17;44.90;;;40.10;;
25111;SDS011;13092;51.996;4.458;2023-03-01T03:30:46;46.60;;;41.57;;
25111;SDS011;13092;51.996;4.458;2023-03-01T03:33:17;50.43;;;42.70;;
25111;SDS011;13092;51.996;4.458;2023-03-01T03:35:46;47.80;;;42.57;;
25111;SDS011;13092;51.996;4.458;2023-03-01T03:38:16;46.50;;;41.47;;
25111;SDS011;13092;51.996;4.458;2023-03-01T03:40:49;47.17;;;41.50;;
25111;SDS011;13092;51.996;4.458;2023-03-01T03:43:18;46.77;;;41.63;;
25111;SDS011;13092;51.996;4.458;2023-03-01T03:45:49;47.97;;;42.17;;
25111;SDS011;13092;51.996;4.458;2023-03-01T03:48:20;48.40;;;41.63;;
25111;SDS011;13092;51.996;4.458;2023-03-01T03:50:48;47.67;;;41.87;;
25111;SDS011;13092;51.996;4.458;2023-03-01T03:53:18;48.73;;;43.20;;
25111;SDS011;13092;51.996;4.458;2023-03-01T03:55:47;51.87;;;42.73;;
25111;SDS011;13092;51.996;4.458;2023-03-01T03:58:18;48.40;;;41.60;;
25111;SDS011;13092;51.996;4.458;2023-03-01T04:00:49;46.27;;;41.17;;
25111;SDS011;13092;51.996;4.458;2023-03-01T04:03:20;49.13;;;41.87;;
25111;SDS011;13092;51.996;4.458;2023-03-01T04:05:48;45.03;;;40.27;;
25111;SDS011;13092;51.996;4.458;2023-03-01T04:08:17;45.30;;;40.70;;
25111;SDS011;13092;51.996;4.458;2023-03-01T04:10:47;46.37;;;41.27;;
25111;SDS011;13092;51.996;4.458;2023-03-01T04:13:18;174.50;;;56.10;;
25111;SDS011;13092;51.996;4.458;2023-03-01T04:15:48;246.97;;;63.67;;
25111;SDS011;13092;51.996;4.458;2023-03-01T04:18:17;216.07;;;54.57;;
25111;SDS011;13092;51.996;4.458;2023-03-01T04:20:48;222.20;;;55.63;;
25111;SDS011;13092;51.996;4.458;2023-03-01T04:23:21;272.67;;;53.17;;
25111;SDS011;13092;51.996;4.458;2023-03-01T04:25:50;455.40;;;69.60;;
25111;SDS011;13092;51.996;4.458;2023-03-01T04:28:22;368.60;;;67.03;;
25111;SDS011;13092;51.996;4.458;2023-03-01T04:30:51;449.70;;;78.77;;
25111;SDS011;13092;51.996;4.458;2023-03-01T04:33:20;332.73;;;63.97;;
25111;SDS011;13092;51.996;4.458;2023-03-01T04:35:50;241.93;;;55.90;;
25111;SDS011;13092;51.996;4.458;2023-03-01T04:38:19;287.87;;;58.87;;
25111;SDS011;13092;51.996;4.458;2023-03-01T04:40:47;251.30;;;53.07;;
25111;SDS011;13092;51.996;4.458;2023-03-01T04:43:15;554.63;;;85.20;;
25111;SDS011;13092;51.996;4.458;2023-03-01T04:45:43;386.63;;;62.87;;
25111;SDS011;13092;51.996;4.458;2023-03-01T04:48:12;622.60;;;94.97;;
25111;SDS011;13092;51.996;4.458;2023-03-01T04:50:40;634.43;;;99.53;;
25111;SDS011;13092;51.996;4.458;2023-03-01T04:53:09;374.40;;;55.40;;
25111;SDS011;13092;51.996;4.458;2023-03-01T04:55:37;461.30;;;71.70;;
25111;SDS011;13092;51.996;4.458;2023-03-01T04:58:05;454.53;;;65.13;;
25111;SDS011;13092;51.996;4.458;2023-03-01T05:00:33;422.17;;;69.30;;
25111;SDS011;13092;51.996;4.458;2023-03-01T05:03:01;444.57;;;64.23;;
25111;SDS011;13092;51.996;4.458;2023-03-01T05:05:30;143.40;;;43.20;;
25111;SDS011;13092;51.996;4.458;2023-03-01T05:08:00;202.40;;;47.83;;
25111;SDS011;13092;51.996;4.458;2023-03-01T05:10:32;357.03;;;61.30;;
25111;SDS011;13092;51.996;4.458;2023-03-01T05:13:02;313.83;;;50.50;;
25111;SDS011;13092;51.996;4.458;2023-03-01T05:15:31;454.23;;;70.23;;
25111;SDS011;13092;51.996;4.458;2023-03-01T05:17:59;341.23;;;61.63;;
25111;SDS011;13092;51.996;4.458;2023-03-01T05:20:28;335.27;;;62.23;;
25111;SDS011;13092;51.996;4.458;2023-03-01T05:22:58;323.03;;;58.80;;
25111;SDS011;13092;51.996;4.458;2023-03-01T05:25:33;368.73;;;67.97;;
25111;SDS011;13092;51.996;4.458;2023-03-01T05:28:07;198.73;;;49.97;;
25111;SDS011;13092;51.996;4.458;2023-03-01T05:30:40;182.33;;;47.23;;
25111;SDS011;13092;51.996;4.458;2023-03-01T05:33:13;403.67;;;71.53;;
25111;SDS011;13092;51.996;4.458;2023-03-01T05:35:43;168.73;;;46.60;;
25111;SDS011;13092;51.996;4.458;2023-03-01T05:38:15;178.40;;;45.57;;
25111;SDS011;13092;51.996;4.458;2023-03-01T05:40:46;121.23;;;41.23;;
25111;SDS011;13092;51.996;4.458;2023-03-01T05:43:16;277.00;;;54.30;;
25111;SDS011;13092;51.996;4.458;2023-03-01T05:45:44;54.73;;;35.40;;
25111;SDS011;13092;51.996;4.458;2023-03-01T05:48:13;50.57;;;36.23;;
25111;SDS011;13092;51.996;4.458;2023-03-01T05:50:42;176.50;;;43.20;;
25111;SDS011;13092;51.996;4.458;2023-03-01T05:53:12;293.43;;;54.33;;
25111;SDS011;13092;51.996;4.458;2023-03-01T05:55:41;261.83;;;50.60;;
25111;SDS011;13092;51.996;4.458;2023-03-01T05:58:12;92.03;;;37.67;;
25111;SDS011;13092;51.996;4.458;2023-03-01T06:00:41;40.97;;;35.03;;
25111;SDS011;13092;51.996;4.458;2023-03-01T06:03:10;100.90;;;38.47;;
25111;SDS011;13092;51.996;4.458;2023-03-01T06:05:40;41.50;;;34.10;;
25111;SDS011;13092;51.996;4.458;2023-03-01T06:08:09;135.30;;;41.83;;
25111;SDS011;13092;51.996;4.458;2023-03-01T06:10:38;396.93;;;69.70;;
25111;SDS011;13092;51.996;4.458;2023-03-01T06:13:07;61.70;;;35.80;;
25111;SDS011;13092;51.996;4.458;2023-03-01T06:15:36;41.57;;;36.03;;
25111;SDS011;13092;51.996;4.458;2023-03-01T06:18:05;67.17;;;36.50;;
25111;SDS011;13092;51.996;4.458;2023-03-01T06:20:33;38.67;;;34.50;;
25111;SDS011;13092;51.996;4.458;2023-03-01T06:23:01;38.60;;;34.60;;
25111;SDS011;13092;51.996;4.458;2023-03-01T06:25:30;38.77;;;34.97;;
25111;SDS011;13092;51.996;4.458;2023-03-01T06:27:58;39.70;;;35.70;;
25111;SDS011;13092;51.996;4.458;2023-03-01T06:30:26;40.47;;;36.50;;
25111;SDS011;13092;51.996;4.458;2023-03-01T06:32:56;40.13;;;36.10;;
25111;SDS011;13092;51.996;4.458;2023-03-01T06:35:29;40.43;;;36.53;;
25111;SDS011;13092;51.996;4.458;2023-03-01T06:37:58;39.43;;;35.37;;
25111;SDS011;13092;51.996;4.458;2023-03-01T06:40:27;39.47;;;35.47;;
25111;SDS011;13092;51.996;4.458;2023-03-01T06:42:57;40.03;;;36.03;;
25111;SDS011;13092;51.996;4.458;2023-03-01T06:45:27;39.70;;;35.87;;
25111;SDS011;13092;51.996;4.458;2023-03-01T06:48:06;40.13;;;36.30;;
25111;SDS011;13092;51.996;4.458;2023-03-01T06:50:35;40.50;;;36.43;;
25111;SDS011;13092;51.996;4.458;2023-03-01T06:53:04;41.50;;;37.20;;
25111;SDS011;13092;51.996;4.458;2023-03-01T06:55:32;37.93;;;34.33;;
25111;SDS011;13092;51.996;4.458;2023-03-01T06:58:01;38.93;;;35.03;;
25111;SDS011;13092;51.996;4.458;2023-03-01T07:00:31;39.70;;;35.97;;
25111;SDS011;13092;51.996;4.458;2023-03-01T07:02:59;40.73;;;36.67;;
25111;SDS011;13092;51.996;4.458;2023-03-01T07:05:31;40.17;;;36.37;;
25111;SDS011;13092;51.996;4.458;2023-03-01T07:08:00;40.83;;;36.73;;
25111;SDS011;13092;51.996;4.458;2023-03-01T07:10:29;42.03;;;37.83;;
25111;SDS011;13092;51.996;4.458;2023-03-01T07:12:57;42.17;;;37.97;;
25111;SDS011;13092;51.996;4.458;2023-03-01T07:15:25;42.20;;;38.10;;
25111;SDS011;13092;51.996;4.458;2023-03-01T07:17:54;41.10;;;37.10;;
25111;SDS011;13092;51.996;4.458;2023-03-01T07:20:24;39.13;;;35.43;;
25111;SDS011;13092;51.996;4.458;2023-03-01T07:22:54;42.50;;;38.37;;
25111;SDS011;13092;51.996;4.458;2023-03-01T07:25:24;41.70;;;37.70;;
25111;SDS011;13092;51.996;4.458;2023-03-01T07:27:53;42.63;;;38.33;;
25111;SDS011;13092;51.996;4.458;2023-03-01T07:30:21;44.10;;;39.60;;
25111;SDS011;13092;51.996;4.458;2023-03-01T07:32:52;43.17;;;38.87;;
25111;SDS011;13092;51.996;4.458;2023-03-01T07:35:21;43.57;;;39.30;;
25111;SDS011;13092;51.996;4.458;2023-03-01T07:37:50;43.67;;;39.30;;
25111;SDS011;13092;51.996;4.458;2023-03-01T07:40:19;43.13;;;38.63;;
25111;SDS011;13092;51.996;4.458;2023-03-01T07:42:47;44.50;;;40.00;;
25111;SDS011;13092;51.996;4.458;2023-03-01T07:45:15;44.43;;;39.90;;
25111;SDS011;13092;51.996;4.458;2023-03-01T07:47:43;44.67;;;40.13;;
25111;SDS011;13092;51.996;4.458;2023-03-01T07:50:11;45.13;;;40.47;;
25111;SDS011;13092;51.996;4.458;2023-03-01T07:52:39;43.57;;;39.07;;
25111;SDS011;13092;51.996;4.458;2023-03-01T07:55:08;44.73;;;40.17;;
25111;SDS011;13092;51.996;4.458;2023-03-01T07:57:38;42.30;;;38.10;;
25111;SDS011;13092;51.996;4.458;2023-03-01T08:00:07;43.53;;;39.13;;
25111;SDS011;13092;51.996;4.458;2023-03-01T08:02:37;44.07;;;39.57;;
25111;SDS011;13092;51.996;4.458;2023-03-01T08:05:08;43.50;;;39.03;;
25111;SDS011;13092;51.996;4.458;2023-03-01T08:07:37;43.80;;;39.40;;
25111;SDS011;13092;51.996;4.458;2023-03-01T08:10:05;43.67;;;39.27;;
25111;SDS011;13092;51.996;4.458;2023-03-01T08:12:34;44.37;;;39.70;;
25111;SDS011;13092;51.996;4.458;2023-03-01T08:15:04;44.27;;;39.77;;
25111;SDS011;13092;51.996;4.458;2023-03-01T08:17:33;42.17;;;37.87;;
25111;SDS011;13092;51.996;4.458;2023-03-01T08:20:01;44.17;;;39.60;;
25111;SDS011;13092;51.996;4.458;2023-03-01T08:22:32;42.67;;;38.23;;
25111;SDS011;13092;51.996;4.458;2023-03-01T08:25:00;43.03;;;38.80;;
25111;SDS011;13092;51.996;4.458;2023-03-01T08:27:29;42.70;;;38.20;;
25111;SDS011;13092;51.996;4.458;2023-03-01T08:29:57;42.40;;;38.20;;
25111;SDS011;13092;51.996;4.458;2023-03-01T08:32:26;42.77;;;38.43;;
25111;SDS011;13092;51.996;4.458;2023-03-01T08:34:54;42.27;;;38.27;;
25111;SDS011;13092;51.996;4.458;2023-03-01T08:37:23;43.73;;;39.33;;
25111;SDS011;13092;51.996;4.458;2023-03-01T08:39:51;42.53;;;38.13;;
25111;SDS011;13092;51.996;4.458;2023-03-01T08:42:19;40.97;;;37.17;;
25111;SDS011;13092;51.996;4.458;2023-03-01T08:44:47;39.73;;;35.97;;
25111;SDS011;13092;51.996;4.458;2023-03-01T08:47:15;40.20;;;36.30;;
25111;SDS011;13092;51.996;4.458;2023-03-01T08:49:45;39.40;;;35.50;;
25111;SDS011;13092;51.996;4.458;2023-03-01T08:52:13;40.13;;;36.43;;
25111;SDS011;13092;51.996;4.458;2023-03-01T08:54:41;38.83;;;35.07;;
25111;SDS011;13092;51.996;4.458;2023-03-01T08:57:09;39.27;;;35.23;;
25111;SDS011;13092;51.996;4.458;2023-03-01T08:59:38;39.60;;;35.67;;
25111;SDS011;13092;51.996;4.458;2023-03-01T09:02:10;37.13;;;33.73;;
25111;SDS011;13092;51.996;4.458;2023-03-01T09:04:40;34.53;;;31.47;;
25111;SDS011;13092;51.996;4.458;2023-03-01T09:07:11;34.20;;;31.20;;
25111;SDS011;13092;51.996;4.458;2023-03-01T09:09:39;31.67;;;28.67;;
25111;SDS011;13092;51.996;4.458;2023-03-01T09:12:07;30.77;;;28.07;;
25111;SDS011;13092;51.996;4.458;2023-03-01T09:14:35;28.60;;;26.10;;
25111;SDS011;13092;51.996;4.458;2023-03-01T09:17:05;27.43;;;24.47;;
25111;SDS011;13092;51.996;4.458;2023-03-01T09:19:33;27.27;;;24.57;;
25111;SDS011;13092;51.996;4.458;2023-03-01T09:22:02;26.73;;;24.40;;
25111;SDS011;13092;51.996;4.458;2023-03-01T09:24:32;24.40;;;22.07;;
25111;SDS011;13092;51.996;4.458;2023-03-01T09:27:01;25.53;;;23.33;;
25111;SDS011;13092;51.996;4.458;2023-03-01T09:29:29;25.73;;;23.47;;
25111;SDS011;13092;51.996;4.458;2023-03-01T09:31:57;24.30;;;21.97;;
25111;SDS011;13092;51.996;4.458;2023-03-01T09:34:25;23.90;;;21.63;;
25111;SDS011;13092;51.996;4.458;2023-03-01T09:36:53;25.10;;;22.70;;
25111;SDS011;13092;51.996;4.458;2023-03-01T09:39:22;25.23;;;22.77;;
25111;SDS011;13092;51.996;4.458;2023-03-01T09:41:53;27.97;;;25.53;;
25111;SDS011;13092;51.996;4.458;2023-03-01T09:44:29;20.07;;;18.37;;
25111;SDS011;13092;51.996;4.458;2023-03-01T09:47:02;22.30;;;20.20;;
25111;SDS011;13092;51.996;4.458;2023-03-01T09:49:31;23.73;;;21.67;;
25111;SDS011;13092;51.996;4.458;2023-03-01T09:52:03;22.20;;;20.20;;
25111;SDS011;13092;51.996;4.458;2023-03-01T09:54:39;19.90;;;18.00;;
25111;SDS011;13092;51.996;4.458;2023-03-01T09:57:19;22.67;;;20.37;;
25111;SDS011;13092;51.996;4.458;2023-03-01T10:00:00;23.37;;;21.27;;
25111;SDS011;13092;51.996;4.458;2023-03-01T10:02:38;17.07;;;15.43;;
25111;SDS011;13092;51.996;4.458;2023-03-01T10:05:14;16.30;;;14.60;;
25111;SDS011;13092;51.996;4.458;2023-03-01T10:07:56;13.30;;;11.87;;
25111;SDS011;13092;51.996;4.458;2023-03-01T10:10:43;8.20;;;5.37;;
25111;SDS011;13092;51.996;4.458;2023-03-01T10:13:17;9.63;;;4.30;;
25111;SDS011;13092;51.996;4.458;2023-03-01T10:15:49;11.87;;;4.40;;
25111;SDS011;13092;51.996;4.458;2023-03-01T10:18:22;10.07;;;4.57;;
25111;SDS011;13092;51.996;4.458;2023-03-01T10:20:53;11.97;;;5.30;;
25111;SDS011;13092;51.996;4.458;2023-03-01T10:23:24;11.20;;;5.27;;
25111;SDS011;13092;51.996;4.458;2023-03-01T10:26:06;7.83;;;4.50;;
25111;SDS011;13092;51.996;4.458;2023-03-01T10:28:47;10.30;;;4.03;;
25111;SDS011;13092;51.996;4.458;2023-03-01T10:31:25;9.43;;;4.43;;
25111;SDS011;13092;51.996;4.458;2023-03-01T10:34:04;9.73;;;4.43;;
25111;SDS011;13092;51.996;4.458;2023-03-01T10:36:37;9.17;;;4.90;;
25111;SDS011;13092;51.996;4.458;2023-03-01T10:39:12;10.17;;;4.40;;
25111;SDS011;13092;51.996;4.458;2023-03-01T10:41:52;7.77;;;4.07;;
25111;SDS011;13092;51.996;4.458;2023-03-01T10:44:40;9.43;;;3.73;;
25111;SDS011;13092;51.996;4.458;2023-03-01T10:47:15;7.63;;;3.83;;
25111;SDS011;13092;51.996;4.458;2023-03-01T10:52:34;6.93;;;4.00;;
25111;SDS011;13092;51.996;4.458;2023-03-01T10:55:04;8.67;;;4.10;;
25111;SDS011;13092;51.996;4.458;2023-03-01T10:57:55;11.60;;;4.57;;
25111;SDS011;13092;51.996;4.458;2023-03-01T11:00:45;11.97;;;4.70;;
25111;SDS011;13092;51.996;4.458;2023-03-01T11:03:16;9.40;;;4.50;;
25111;SDS011;13092;51.996;4.458;2023-03-01T11:05:52;7.57;;;3.90;;
25111;SDS011;13092;51.996;4.458;2023-03-01T11:08:35;7.90;;;4.57;;
25111;SDS011;13092;51.996;4.458;2023-03-01T11:11:12;9.47;;;4.90;;
25111;SDS011;13092;51.996;4.458;2023-03-01T11:14:00;10.80;;;4.93;;
25111;SDS011;13092;51.996;4.458;2023-03-01T11:16:59;12.23;;;6.00;;
25111;SDS011;13092;51.996;4.458;2023-03-01T11:19:28;8.43;;;4.27;;
25111;SDS011;13092;51.996;4.458;2023-03-01T11:21:58;11.23;;;5.80;;
25111;SDS011;13092;51.996;4.458;2023-03-01T11:27:36;11.30;;;5.20;;
25111;SDS011;13092;51.996;4.458;2023-03-01T11:30:12;11.27;;;5.70;;
25111;SDS011;13092;51.996;4.458;2023-03-01T11:32:50;9.17;;;5.03;;
25111;SDS011;13092;51.996;4.458;2023-03-01T11:35:24;11.43;;;5.83;;
25111;SDS011;13092;51.996;4.458;2023-03-01T11:37:58;11.87;;;5.90;;
25111;SDS011;13092;51.996;4.458;2023-03-01T11:40:33;13.53;;;5.87;;
25111;SDS011;13092;51.996;4.458;2023-03-01T11:43:05;11.37;;;5.73;;
25111;SDS011;13092;51.996;4.458;2023-03-01T11:45:46;10.13;;;5.20;;
25111;SDS011;13092;51.996;4.458;2023-03-01T11:48:32;13.23;;;5.80;;
25111;SDS011;13092;51.996;4.458;2023-03-01T11:51:17;12.20;;;6.33;;
25111;SDS011;13092;51.996;4.458;2023-03-01T11:56:50;12.47;;;5.40;;
25111;SDS011;13092;51.996;4.458;2023-03-01T12:02:37;11.37;;;4.83;;
25111;SDS011;13092;51.996;4.458;2023-03-01T12:08:33;13.73;;;5.77;;
25111;SDS011;13092;51.996;4.458;2023-03-01T12:11:09;12.27;;;6.17;;
25111;SDS011;13092;51.996;4.458;2023-03-01T12:13:52;13.07;;;6.50;;
25111;SDS011;13092;51.996;4.458;2023-03-01T12:16:54;14.73;;;6.30;;
25111;SDS011;13092;51.996;4.458;2023-03-01T12:19:43;12.03;;;5.70;;
25111;SDS011;13092;51.996;4.458;2023-03-01T12:22:28;13.27;;;7.00;;
25111;SDS011;13092;51.996;4.458;2023-03-01T12:25:03;15.70;;;7.03;;
25111;SDS011;13092;51.996;4.458;2023-03-01T12:27:55;13.33;;;6.87;;
25111;SDS011;13092;51.996;4.458;2023-03-01T12:30:36;14.57;;;6.13;;
25111;SDS011;13092;51.996;4.458;2023-03-01T12:33:21;13.90;;;6.90;;
25111;SDS011;13092;51.996;4.458;2023-03-01T12:36:07;16.27;;;6.70;;
25111;SDS011;13092;51.996;4.458;2023-03-01T12:38:58;14.40;;;6.87;;
25111;SDS011;13092;51.996;4.458;2023-03-01T12:41:43;12.70;;;6.50;;
25111;SDS011;13092;51.996;4.458;2023-03-01T12:44:25;15.33;;;6.33;;
25111;SDS011;13092;51.996;4.458;2023-03-01T12:47:14;13.10;;;6.80;;
25111;SDS011;13092;51.996;4.458;2023-03-01T12:49:51;11.40;;;5.90;;
25111;SDS011;13092;51.996;4.458;2023-03-01T12:52:35;12.87;;;6.30;;
25111;SDS011;13092;51.996;4.458;2023-03-01T12:55:07;11.67;;;5.67;;
25111;SDS011;13092;51.996;4.458;2023-03-01T12:57:47;12.33;;;5.87;;
25111;SDS011;13092;51.996;4.458;2023-03-01T13:00:24;12.27;;;5.47;;
25111;SDS011;13092;51.996;4.458;2023-03-01T13:03:00;11.10;;;5.23;;
25111;SDS011;13092;51.996;4.458;2023-03-01T13:05:40;11.60;;;5.90;;
25111;SDS011;13092;51.996;4.458;2023-03-01T13:08:19;11.33;;;5.23;;
25111;SDS011;13092;51.996;4.458;2023-03-01T13:10:55;10.77;;;5.93;;
25111;SDS011;13092;51.996;4.458;2023-03-01T13:13:28;10.47;;;5.37;;
25111;SDS011;13092;51.996;4.458;2023-03-01T13:15:57;13.00;;;5.43;;
25111;SDS011;13092;51.996;4.458;2023-03-01T13:18:50;10.83;;;4.83;;
25111;SDS011;13092;51.996;4.458;2023-03-01T13:21:34;11.37;;;4.90;;
25111;SDS011;13092;51.996;4.458;2023-03-01T13:24:03;11.20;;;5.33;;
25111;SDS011;13092;51.996;4.458;2023-03-01T13:26:31;10.30;;;5.20;;
25111;SDS011;13092;51.996;4.458;2023-03-01T13:29:45;10.10;;;4.80;;
25111;SDS011;13092;51.996;4.458;2023-03-01T13:32:21;11.70;;;5.10;;
25111;SDS011;13092;51.996;4.458;2023-03-01T13:41:05;8.97;;;3.87;;
25111;SDS011;13092;51.996;4.458;2023-03-01T13:43:36;9.23;;;4.50;;
25111;SDS011;13092;51.996;4.458;2023-03-01T13:46:10;9.97;;;4.93;;
25111;SDS011;13092;51.996;4.458;2023-03-01T13:48:40;7.13;;;3.60;;
25111;SDS011;13092;51.996;4.458;2023-03-01T13:51:10;9.33;;;4.10;;
25111;SDS011;13092;51.996;4.458;2023-03-01T13:53:43;7.43;;;4.27;;
25111;SDS011;13092;51.996;4.458;2023-03-01T13:56:15;8.23;;;4.37;;
25111;SDS011;13092;51.996;4.458;2023-03-01T13:58:51;6.70;;;3.80;;
25111;SDS011;13092;51.996;4.458;2023-03-01T14:01:26;7.10;;;3.70;;
25111;SDS011;13092;51.996;4.458;2023-03-01T14:03:56;9.63;;;4.47;;
25111;SDS011;13092;51.996;4.458;2023-03-01T14:06:26;9.00;;;4.43;;
25111;SDS011;13092;51.996;4.458;2023-03-01T14:09:04;8.73;;;4.50;;
25111;SDS011;13092;51.996;4.458;2023-03-01T14:11:54;8.50;;;4.83;;
25111;SDS011;13092;51.996;4.458;2023-03-01T14:17:34;10.27;;;4.50;;
25111;SDS011;13092;51.996;4.458;2023-03-01T14:20:16;7.77;;;4.23;;
25111;SDS011;13092;51.996;4.458;2023-03-01T14:22:46;5.63;;;3.40;;
25111;SDS011;13092;51.996;4.458;2023-03-01T14:25:19;7.23;;;3.77;;
25111;SDS011;13092;51.996;4.458;2023-03-01T14:27:57;7.73;;;3.93;;
25111;SDS011;13092;51.996;4.458;2023-03-01T14:30:34;9.40;;;4.27;;
25111;SDS011;13092;51.996;4.458;2023-03-01T14:33:06;9.00;;;4.70;;
25111;SDS011;13092;51.996;4.458;2023-03-01T14:35:52;6.83;;;3.47;;
25111;SDS011;13092;51.996;4.458;2023-03-01T14:38:28;8.50;;;4.13;;
25111;SDS011;13092;51.996;4.458;2023-03-01T14:41:01;7.77;;;3.73;;
25111;SDS011;13092;51.996;4.458;2023-03-01T14:43:32;9.23;;;4.23;;
25111;SDS011;13092;51.996;4.458;2023-03-01T14:46:03;7.83;;;3.97;;
25111;SDS011;13092;51.996;4.458;2023-03-01T14:48:31;7.23;;;3.90;;
25111;SDS011;13092;51.996;4.458;2023-03-01T14:51:00;9.90;;;4.10;;
25111;SDS011;13092;51.996;4.458;2023-03-01T14:53:28;6.03;;;3.33;;
25111;SDS011;13092;51.996;4.458;2023-03-01T14:56:15;6.90;;;3.93;;
25111;SDS011;13092;51.996;4.458;2023-03-01T14:58:43;9.23;;;4.20;;
25111;SDS011;13092;51.996;4.458;2023-03-01T15:01:15;7.27;;;3.73;;
25111;SDS011;13092;51.996;4.458;2023-03-01T15:03:46;9.67;;;4.07;;
25111;SDS011;13092;51.996;4.458;2023-03-01T15:06:16;8.20;;;4.37;;
25111;SDS011;13092;51.996;4.458;2023-03-01T15:08:47;9.33;;;4.43;;
25111;SDS011;13092;51.996;4.458;2023-03-01T15:11:19;8.37;;;4.37;;
25111;SDS011;13092;51.996;4.458;2023-03-01T15:13:50;7.77;;;4.10;;
25111;SDS011;13092;51.996;4.458;2023-03-01T15:16:22;8.17;;;3.80;;
25111;SDS011;13092;51.996;4.458;2023-03-01T15:18:52;8.87;;;4.47;;
25111;SDS011;13092;51.996;4.458;2023-03-01T15:21:23;8.60;;;4.03;;
25111;SDS011;13092;51.996;4.458;2023-03-01T15:23:54;8.17;;;3.80;;